sensor_id;sensor_type;location;lat;lon;timestamp;pressure;altitude;pressure_sealevel;temperature;humidity
13734;BME280;43298;52.560;13.508;2023-04-23T00:01:03;100128.59;;;14.05;92.30
13734;BME280;43298;52.560;13.508;2023-04-23T00:03:31;100128.25;;;13.97;93.82
13734;BME280;43298;52.560;13.508;2023-04-23T00:06:05;100125.13;;;13.92;94.57
13734;BME280;43298;52.560;13.508;2023-04-23T00:08:32;100126.25;;;13.88;95.17
13734;BME280;43298;52.560;13.508;2023-04-23T00:10:58;100120.66;;;13.94;94.80
13734;BME280;43298;52.560;13.508;2023-04-23T00:13:25;100124.31;;;13.92;95.90
13734;BME280;43298;52.560;13.508;2023-04-23T00:15:50;100114.53;;;13.95;95.60
13734;BME280;43298;52.560;13.508;2023-04-23T00:18:16;100111.25;;;14.06;94.63
13734;BME280;43298;52.560;13.508;2023-04-23T00:20:42;100113.31;;;14.13;94.24
13734;BME280;43298;52.560;13.508;2023-04-23T00:23:08;100116.56;;;14.17;93.66
13734;BME280;43298;52.560;13.508;2023-04-23T00:25:34;100112.81;;;14.21;93.74
13734;BME280;43298;52.560;13.508;2023-04-23T00:28:00;100108.25;;;14.24;94.40
13734;BME280;43298;52.560;13.508;2023-04-23T00:30:26;100113.38;;;14.26;93.20
13734;BME280;43298;52.560;13.508;2023-04-23T00:32:51;100111.91;;;14.22;93.54
13734;BME280;43298;52.560;13.508;2023-04-23T00:35:17;100110.81;;;14.12;94.80
13734;BME280;43298;52.560;13.508;2023-04-23T00:37:43;100111.47;;;14.15;94.65
13734;BME280;43298;52.560;13.508;2023-04-23T00:40:09;100110.28;;;14.07;96.25
13734;BME280;43298;52.560;13.508;2023-04-23T00:42:37;100106.03;;;14.06;96.15
13734;BME280;43298;52.560;13.508;2023-04-23T00:45:06;100103.44;;;14.06;97.37
13734;BME280;43298;52.560;13.508;2023-04-23T00:47:34;100102.81;;;14.15;96.67
13734;BME280;43298;52.560;13.508;2023-04-23T00:50:00;100103.19;;;14.23;96.24
13734;BME280;43298;52.560;13.508;2023-04-23T00:52:26;100102.56;;;14.32;95.76
13734;BME280;43298;52.560;13.508;2023-04-23T00:54:54;100101.53;;;14.34;95.97
13734;BME280;43298;52.560;13.508;2023-04-23T00:57:23;100094.47;;;14.36;95.94
13734;BME280;43298;52.560;13.508;2023-04-23T00:59:50;100088.97;;;14.41;95.11
13734;BME280;43298;52.560;13.508;2023-04-23T01:02:16;100089.38;;;14.47;94.68
13734;BME280;43298;52.560;13.508;2023-04-23T01:04:43;100088.41;;;14.48;94.72
13734;BME280;43298;52.560;13.508;2023-04-23T01:07:11;100087.81;;;14.57;93.75
13734;BME280;43298;52.560;13.508;2023-04-23T01:09:37;100079.16;;;14.57;94.50
13734;BME280;43298;52.560;13.508;2023-04-23T01:12:05;100073.84;;;14.58;94.29
13734;BME280;43298;52.560;13.508;2023-04-23T01:14:32;100080.50;;;14.62;93.89
13734;BME280;43298;52.560;13.508;2023-04-23T01:16:57;100075.00;;;14.67;93.08
13734;BME280;43298;52.560;13.508;2023-04-23T01:19:23;100075.28;;;14.75;92.52
13734;BME280;43298;52.560;13.508;2023-04-23T01:21:50;100081.34;;;14.75;93.09
13734;BME280;43298;52.560;13.508;2023-04-23T01:24:16;100078.94;;;14.72;93.63
13734;BME280;43298;52.560;13.508;2023-04-23T01:26:42;100090.91;;;14.75;93.03
13734;BME280;43298;52.560;13.508;2023-04-23T01:29:08;100092.16;;;14.69;93.86
13734;BME280;43298;52.560;13.508;2023-04-23T01:31:34;100088.84;;;14.67;94.20
13734;BME280;43298;52.560;13.508;2023-04-23T01:34:01;100085.31;;;14.68;94.00
13734;BME280;43298;52.560;13.508;2023-04-23T01:36:27;100085.31;;;14.68;94.25
13734;BME280;43298;52.560;13.508;2023-04-23T01:38:54;100088.09;;;14.65;94.97
13734;BME280;43298;52.560;13.508;2023-04-23T01:41:20;100091.75;;;14.63;94.95
13734;BME280;43298;52.560;13.508;2023-04-23T01:43:45;100084.16;;;14.60;96.02
13734;BME280;43298;52.560;13.508;2023-04-23T01:46:11;100077.41;;;14.57;95.78
13734;BME280;43298;52.560;13.508;2023-04-23T01:48:38;100082.41;;;14.60;96.03
13734;BME280;43298;52.560;13.508;2023-04-23T01:51:04;100085.72;;;14.62;95.90
13734;BME280;43298;52.560;13.508;2023-04-23T01:53:30;100083.94;;;14.63;96.70
13734;BME280;43298;52.560;13.508;2023-04-23T01:55:57;100075.84;;;14.67;95.60
13734;BME280;43298;52.560;13.508;2023-04-23T01:58:24;100077.69;;;14.65;97.01
13734;BME280;43298;52.560;13.508;2023-04-23T02:00:50;100070.09;;;14.62;97.14
13734;BME280;43298;52.560;13.508;2023-04-23T02:03:16;100075.31;;;14.62;96.39
13734;BME280;43298;52.560;13.508;2023-04-23T02:05:42;100071.25;;;14.58;97.41
13734;BME280;43298;52.560;13.508;2023-04-23T02:08:08;100067.91;;;14.56;98.74
13734;BME280;43298;52.560;13.508;2023-04-23T02:10:34;100075.41;;;14.48;100.00
13734;BME280;43298;52.560;13.508;2023-04-23T02:13:01;100072.00;;;14.35;100.00
13734;BME280;43298;52.560;13.508;2023-04-23T02:15:28;100069.78;;;14.29;100.00
13734;BME280;43298;52.560;13.508;2023-04-23T02:17:54;100066.66;;;14.24;100.00
13734;BME280;43298;52.560;13.508;2023-04-23T02:20:20;100069.38;;;14.23;100.00
13734;BME280;43298;52.560;13.508;2023-04-23T02:22:48;100067.75;;;14.20;100.00
13734;BME280;43298;52.560;13.508;2023-04-23T02:25:14;100054.88;;;14.19;100.00
13734;BME280;43298;52.560;13.508;2023-04-23T02:27:42;100071.69;;;14.01;100.00
13734;BME280;43298;52.560;13.508;2023-04-23T02:30:09;100088.47;;;13.70;100.00
13734;BME280;43298;52.560;13.508;2023-04-23T02:32:37;100082.97;;;13.48;100.00
13734;BME280;43298;52.560;13.508;2023-04-23T02:35:03;100063.41;;;13.16;100.00
13734;BME280;43298;52.560;13.508;2023-04-23T02:37:34;100081.06;;;12.83;100.00
13734;BME280;43298;52.560;13.508;2023-04-23T02:40:02;100082.34;;;12.62;100.00
13734;BME280;43298;52.560;13.508;2023-04-23T02:42:29;100090.13;;;12.48;100.00
13734;BME280;43298;52.560;13.508;2023-04-23T02:44:55;100091.41;;;12.41;100.00
13734;BME280;43298;52.560;13.508;2023-04-23T02:47:20;100091.94;;;12.32;100.00
13734;BME280;43298;52.560;13.508;2023-04-23T02:49:46;100104.53;;;12.24;100.00
13734;BME280;43298;52.560;13.508;2023-04-23T02:52:12;100101.19;;;12.22;100.00
13734;BME280;43298;52.560;13.508;2023-04-23T02:54:38;100094.16;;;12.24;100.00
13734;BME280;43298;52.560;13.508;2023-04-23T02:57:05;100089.81;;;12.25;100.00
13734;BME280;43298;52.560;13.508;2023-04-23T02:59:31;100093.78;;;12.16;100.00
13734;BME280;43298;52.560;13.508;2023-04-23T03:01:56;100093.59;;;12.19;100.00
13734;BME280;43298;52.560;13.508;2023-04-23T03:04:22;100100.00;;;12.28;100.00
13734;BME280;43298;52.560;13.508;2023-04-23T03:06:48;100106.84;;;12.29;100.00
13734;BME280;43298;52.560;13.508;2023-04-23T03:09:14;100107.50;;;12.32;100.00
13734;BME280;43298;52.560;13.508;2023-04-23T03:11:40;100097.13;;;12.32;100.00
13734;BME280;43298;52.560;13.508;2023-04-23T03:14:06;100092.16;;;12.29;100.00
13734;BME280;43298;52.560;13.508;2023-04-23T03:16:32;100095.63;;;12.28;100.00
13734;BME280;43298;52.560;13.508;2023-04-23T03:18:58;100104.34;;;12.27;100.00
13734;BME280;43298;52.560;13.508;2023-04-23T03:21:25;100105.84;;;12.31;100.00
13734;BME280;43298;52.560;13.508;2023-04-23T03:23:51;100111.97;;;12.44;100.00
13734;BME280;43298;52.560;13.508;2023-04-23T03:26:17;100129.78;;;12.50;100.00
13734;BME280;43298;52.560;13.508;2023-04-23T03:28:43;100133.19;;;12.51;100.00
13734;BME280;43298;52.560;13.508;2023-04-23T03:31:09;100138.53;;;12.48;100.00
13734;BME280;43298;52.560;13.508;2023-04-23T03:33:35;100138.09;;;12.41;100.00
13734;BME280;43298;52.560;13.508;2023-04-23T03:36:01;100137.16;;;12.42;100.00
13734;BME280;43298;52.560;13.508;2023-04-23T03:38:26;100129.53;;;12.39;100.00
13734;BME280;43298;52.560;13.508;2023-04-23T03:40:52;100124.34;;;12.39;100.00
13734;BME280;43298;52.560;13.508;2023-04-23T03:43:18;100117.78;;;12.34;100.00
13734;BME280;43298;52.560;13.508;2023-04-23T03:45:44;100115.38;;;12.31;100.00
13734;BME280;43298;52.560;13.508;2023-04-23T03:48:10;100114.38;;;12.33;100.00
13734;BME280;43298;52.560;13.508;2023-04-23T03:50:36;100107.69;;;12.29;100.00
13734;BME280;43298;52.560;13.508;2023-04-23T03:53:05;100102.31;;;12.32;100.00
13734;BME280;43298;52.560;13.508;2023-04-23T03:55:32;100109.44;;;12.29;100.00
13734;BME280;43298;52.560;13.508;2023-04-23T03:57:58;100104.00;;;12.33;100.00
13734;BME280;43298;52.560;13.508;2023-04-23T04:00:26;100105.56;;;12.36;100.00
13734;BME280;43298;52.560;13.508;2023-04-23T04:02:52;100102.91;;;12.37;100.00
13734;BME280;43298;52.560;13.508;2023-04-23T04:05:18;100099.16;;;12.27;100.00
13734;BME280;43298;52.560;13.508;2023-04-23T04:07:43;100097.69;;;12.23;100.00
13734;BME280;43298;52.560;13.508;2023-04-23T04:10:10;100088.97;;;12.24;100.00
13734;BME280;43298;52.560;13.508;2023-04-23T04:12:36;100091.38;;;12.27;100.00
13734;BME280;43298;52.560;13.508;2023-04-23T04:15:03;100088.44;;;12.33;100.00
13734;BME280;43298;52.560;13.508;2023-04-23T04:17:29;100091.59;;;12.38;100.00
13734;BME280;43298;52.560;13.508;2023-04-23T04:19:55;100084.56;;;12.40;100.00
13734;BME280;43298;52.560;13.508;2023-04-23T04:22:20;100080.00;;;12.44;100.00
13734;BME280;43298;52.560;13.508;2023-04-23T04:24:46;100084.38;;;12.43;100.00
13734;BME280;43298;52.560;13.508;2023-04-23T04:27:13;100090.22;;;12.47;100.00
13734;BME280;43298;52.560;13.508;2023-04-23T04:29:40;100094.94;;;12.54;100.00
13734;BME280;43298;52.560;13.508;2023-04-23T04:32:07;100100.50;;;12.48;100.00
13734;BME280;43298;52.560;13.508;2023-04-23T04:34:33;100088.16;;;12.52;100.00
13734;BME280;43298;52.560;13.508;2023-04-23T04:37:01;100094.56;;;12.60;100.00
13734;BME280;43298;52.560;13.508;2023-04-23T04:39:26;100105.97;;;12.58;100.00
13734;BME280;43298;52.560;13.508;2023-04-23T04:41:52;100102.53;;;12.71;100.00
13734;BME280;43298;52.560;13.508;2023-04-23T04:44:19;100109.94;;;12.77;100.00
13734;BME280;43298;52.560;13.508;2023-04-23T04:46:44;100111.91;;;12.88;100.00
13734;BME280;43298;52.560;13.508;2023-04-23T04:49:11;100104.56;;;12.94;100.00
13734;BME280;43298;52.560;13.508;2023-04-23T04:51:38;100105.06;;;13.01;100.00
13734;BME280;43298;52.560;13.508;2023-04-23T04:54:05;100099.31;;;13.10;100.00
13734;BME280;43298;52.560;13.508;2023-04-23T04:56:33;100099.47;;;13.21;100.00
13734;BME280;43298;52.560;13.508;2023-04-23T04:58:59;100098.44;;;13.23;100.00
13734;BME280;43298;52.560;13.508;2023-04-23T05:01:26;100094.47;;;13.18;100.00
13734;BME280;43298;52.560;13.508;2023-04-23T05:03:54;100099.75;;;13.16;100.00
13734;BME280;43298;52.560;13.508;2023-04-23T05:06:20;100101.69;;;13.27;100.00
13734;BME280;43298;52.560;13.508;2023-04-23T05:08:46;100093.59;;;13.31;100.00
13734;BME280;43298;52.560;13.508;2023-04-23T05:11:19;100093.84;;;13.41;100.00
13734;BME280;43298;52.560;13.508;2023-04-23T05:13:46;100102.28;;;13.44;100.00
13734;BME280;43298;52.560;13.508;2023-04-23T05:16:12;100101.34;;;13.45;100.00
13734;BME280;43298;52.560;13.508;2023-04-23T05:18:39;100094.56;;;13.57;100.00
13734;BME280;43298;52.560;13.508;2023-04-23T05:21:06;100093.31;;;13.62;100.00
13734;BME280;43298;52.560;13.508;2023-04-23T05:23:32;100098.00;;;13.57;100.00
13734;BME280;43298;52.560;13.508;2023-04-23T05:25:58;100097.38;;;13.66;100.00
13734;BME280;43298;52.560;13.508;2023-04-23T05:28:24;100099.41;;;13.75;100.00
13734;BME280;43298;52.560;13.508;2023-04-23T05:30:50;100087.88;;;13.79;100.00
13734;BME280;43298;52.560;13.508;2023-04-23T05:33:17;100096.13;;;13.98;100.00
13734;BME280;43298;52.560;13.508;2023-04-23T05:35:42;100094.09;;;14.16;100.00
13734;BME280;43298;52.560;13.508;2023-04-23T05:38:09;100088.94;;;14.28;100.00
13734;BME280;43298;52.560;13.508;2023-04-23T05:40:35;100087.47;;;14.37;100.00
13734;BME280;43298;52.560;13.508;2023-04-23T05:43:01;100094.47;;;14.49;100.00
13734;BME280;43298;52.560;13.508;2023-04-23T05:45:27;100099.03;;;14.58;100.00
13734;BME280;43298;52.560;13.508;2023-04-23T05:47:53;100091.56;;;14.66;100.00
13734;BME280;43298;52.560;13.508;2023-04-23T05:50:20;100093.59;;;14.73;100.00
13734;BME280;43298;52.560;13.508;2023-04-23T05:52:46;100095.16;;;14.76;100.00
13734;BME280;43298;52.560;13.508;2023-04-23T05:55:12;100091.31;;;14.81;100.00
13734;BME280;43298;52.560;13.508;2023-04-23T05:57:40;100094.03;;;14.92;100.00
13734;BME280;43298;52.560;13.508;2023-04-23T06:00:07;100097.19;;;15.08;100.00
13734;BME280;43298;52.560;13.508;2023-04-23T06:02:39;100095.91;;;15.27;100.00
13734;BME280;43298;52.560;13.508;2023-04-23T06:05:06;100093.31;;;15.27;100.00
13734;BME280;43298;52.560;13.508;2023-04-23T06:07:32;100090.59;;;15.41;100.00
13734;BME280;43298;52.560;13.508;2023-04-23T06:09:59;100094.09;;;15.52;100.00
13734;BME280;43298;52.560;13.508;2023-04-23T06:12:25;100089.09;;;15.49;100.00
13734;BME280;43298;52.560;13.508;2023-04-23T06:14:52;100085.53;;;15.50;100.00
13734;BME280;43298;52.560;13.508;2023-04-23T06:17:18;100083.81;;;15.62;100.00
13734;BME280;43298;52.560;13.508;2023-04-23T06:19:43;100083.19;;;15.58;100.00
13734;BME280;43298;52.560;13.508;2023-04-23T06:22:09;100080.72;;;15.57;100.00
13734;BME280;43298;52.560;13.508;2023-04-23T06:24:35;100089.94;;;15.50;100.00
13734;BME280;43298;52.560;13.508;2023-04-23T06:27:01;100086.09;;;15.43;100.00
13734;BME280;43298;52.560;13.508;2023-04-23T06:29:27;100090.16;;;15.47;100.00
13734;BME280;43298;52.560;13.508;2023-04-23T06:32:02;100074.06;;;15.53;100.00
13734;BME280;43298;52.560;13.508;2023-04-23T06:34:29;100084.09;;;15.46;100.00
13734;BME280;43298;52.560;13.508;2023-04-23T06:36:55;100080.09;;;15.53;100.00
13734;BME280;43298;52.560;13.508;2023-04-23T06:39:21;100075.94;;;15.51;100.00
13734;BME280;43298;52.560;13.508;2023-04-23T06:41:47;100082.94;;;15.50;100.00
13734;BME280;43298;52.560;13.508;2023-04-23T06:44:13;100083.44;;;15.55;100.00
13734;BME280;43298;52.560;13.508;2023-04-23T06:46:38;100083.59;;;15.65;100.00
13734;BME280;43298;52.560;13.508;2023-04-23T06:49:04;100077.44;;;15.66;100.00
13734;BME280;43298;52.560;13.508;2023-04-23T06:51:30;100078.41;;;15.65;100.00
13734;BME280;43298;52.560;13.508;2023-04-23T06:53:56;100080.16;;;15.64;100.00
13734;BME280;43298;52.560;13.508;2023-04-23T06:56:23;100079.81;;;15.69;100.00
13734;BME280;43298;52.560;13.508;2023-04-23T06:58:49;100080.19;;;15.75;100.00
13734;BME280;43298;52.560;13.508;2023-04-23T07:01:15;100082.66;;;15.66;100.00
13734;BME280;43298;52.560;13.508;2023-04-23T07:03:40;100079.56;;;15.61;100.00
13734;BME280;43298;52.560;13.508;2023-04-23T07:06:09;100085.16;;;15.67;100.00
13734;BME280;43298;52.560;13.508;2023-04-23T07:08:35;100086.25;;;15.76;100.00
13734;BME280;43298;52.560;13.508;2023-04-23T07:11:01;100091.97;;;15.81;100.00
13734;BME280;43298;52.560;13.508;2023-04-23T07:13:27;100090.09;;;15.83;100.00
13734;BME280;43298;52.560;13.508;2023-04-23T07:15:53;100093.25;;;15.52;100.00
13734;BME280;43298;52.560;13.508;2023-04-23T07:18:19;100097.44;;;15.42;100.00
13734;BME280;43298;52.560;13.508;2023-04-23T07:20:44;100095.63;;;15.19;100.00
13734;BME280;43298;52.560;13.508;2023-04-23T07:23:10;100098.56;;;15.01;100.00
13734;BME280;43298;52.560;13.508;2023-04-23T07:25:36;100101.84;;;14.92;100.00
13734;BME280;43298;52.560;13.508;2023-04-23T07:28:02;100100.72;;;14.71;100.00
13734;BME280;43298;52.560;13.508;2023-04-23T07:30:29;100111.13;;;14.59;100.00
13734;BME280;43298;52.560;13.508;2023-04-23T07:32:55;100112.13;;;14.44;100.00
13734;BME280;43298;52.560;13.508;2023-04-23T07:35:21;100117.97;;;14.35;100.00
13734;BME280;43298;52.560;13.508;2023-04-23T07:37:47;100122.97;;;14.25;100.00
13734;BME280;43298;52.560;13.508;2023-04-23T07:40:21;100128.53;;;14.19;100.00
13734;BME280;43298;52.560;13.508;2023-04-23T07:42:47;100130.25;;;14.06;100.00
13734;BME280;43298;52.560;13.508;2023-04-23T07:45:13;100129.31;;;13.95;100.00
13734;BME280;43298;52.560;13.508;2023-04-23T07:47:40;100130.25;;;14.06;100.00
13734;BME280;43298;52.560;13.508;2023-04-23T07:50:06;100131.00;;;14.08;100.00
13734;BME280;43298;52.560;13.508;2023-04-23T07:52:32;100136.00;;;14.11;100.00
13734;BME280;43298;52.560;13.508;2023-04-23T07:54:58;100136.00;;;14.11;100.00
13734;BME280;43298;52.560;13.508;2023-04-23T07:57:24;100130.00;;;14.23;100.00
13734;BME280;43298;52.560;13.508;2023-04-23T07:59:49;100137.38;;;14.17;100.00
13734;BME280;43298;52.560;13.508;2023-04-23T08:02:15;100140.56;;;14.20;100.00
13734;BME280;43298;52.560;13.508;2023-04-23T08:04:42;100140.34;;;14.11;100.00
13734;BME280;43298;52.560;13.508;2023-04-23T08:07:08;100140.44;;;14.09;100.00
13734;BME280;43298;52.560;13.508;2023-04-23T08:09:34;100137.44;;;14.03;100.00
13734;BME280;43298;52.560;13.508;2023-04-23T08:12:00;100137.13;;;14.07;100.00
13734;BME280;43298;52.560;13.508;2023-04-23T08:14:26;100137.63;;;14.00;100.00
13734;BME280;43298;52.560;13.508;2023-04-23T08:16:52;100135.03;;;14.00;100.00
13734;BME280;43298;52.560;13.508;2023-04-23T08:19:18;100147.53;;;14.07;100.00
13734;BME280;43298;52.560;13.508;2023-04-23T08:21:43;100137.84;;;14.09;100.00
13734;BME280;43298;52.560;13.508;2023-04-23T08:24:09;100144.81;;;14.23;100.00
13734;BME280;43298;52.560;13.508;2023-04-23T08:26:35;100137.81;;;14.23;100.00
13734;BME280;43298;52.560;13.508;2023-04-23T08:29:01;100140.03;;;14.29;100.00
13734;BME280;43298;52.560;13.508;2023-04-23T08:31:27;100142.34;;;14.46;100.00
13734;BME280;43298;52.560;13.508;2023-04-23T08:33:54;100140.16;;;14.53;100.00
13734;BME280;43298;52.560;13.508;2023-04-23T08:36:20;100137.34;;;14.56;100.00
13734;BME280;43298;52.560;13.508;2023-04-23T08:38:46;100133.28;;;14.77;100.00
13734;BME280;43298;52.560;13.508;2023-04-23T08:41:14;100134.00;;;14.79;100.00
13734;BME280;43298;52.560;13.508;2023-04-23T08:44:06;100131.94;;;14.96;100.00
13734;BME280;43298;52.560;13.508;2023-04-23T08:46:41;100127.75;;;15.07;100.00
13734;BME280;43298;52.560;13.508;2023-04-23T08:49:17;100133.25;;;15.15;100.00
13734;BME280;43298;52.560;13.508;2023-04-23T08:51:52;100127.97;;;15.03;100.00
13734;BME280;43298;52.560;13.508;2023-04-23T08:54:26;100122.50;;;15.19;100.00
13734;BME280;43298;52.560;13.508;2023-04-23T08:56:57;100122.25;;;15.35;100.00
13734;BME280;43298;52.560;13.508;2023-04-23T08:59:25;100120.84;;;15.54;100.00
13734;BME280;43298;52.560;13.508;2023-04-23T09:01:52;100118.97;;;15.80;100.00
13734;BME280;43298;52.560;13.508;2023-04-23T09:04:18;100122.84;;;15.98;100.00
13734;BME280;43298;52.560;13.508;2023-04-23T09:06:45;100119.06;;;16.02;100.00
13734;BME280;43298;52.560;13.508;2023-04-23T09:09:15;100116.84;;;15.85;100.00
13734;BME280;43298;52.560;13.508;2023-04-23T09:11:43;100118.53;;;15.86;100.00
13734;BME280;43298;52.560;13.508;2023-04-23T09:14:09;100111.72;;;15.72;100.00
13734;BME280;43298;52.560;13.508;2023-04-23T09:16:35;100116.31;;;15.69;100.00
13734;BME280;43298;52.560;13.508;2023-04-23T09:19:01;100109.44;;;15.44;100.00
13734;BME280;43298;52.560;13.508;2023-04-23T09:21:27;100116.75;;;15.27;100.00
13734;BME280;43298;52.560;13.508;2023-04-23T09:23:53;100116.38;;;15.07;100.00
13734;BME280;43298;52.560;13.508;2023-04-23T09:26:20;100116.22;;;14.73;100.00
13734;BME280;43298;52.560;13.508;2023-04-23T09:28:49;100118.94;;;14.71;100.00
13734;BME280;43298;52.560;13.508;2023-04-23T09:31:23;100123.50;;;14.55;100.00
13734;BME280;43298;52.560;13.508;2023-04-23T09:33:53;100127.25;;;14.51;100.00
13734;BME280;43298;52.560;13.508;2023-04-23T09:36:22;100127.34;;;14.50;100.00
13734;BME280;43298;52.560;13.508;2023-04-23T09:38:49;100128.78;;;14.54;100.00
13734;BME280;43298;52.560;13.508;2023-04-23T09:41:26;100128.06;;;14.39;100.00
13734;BME280;43298;52.560;13.508;2023-04-23T09:43:53;100123.16;;;14.35;100.00
13734;BME280;43298;52.560;13.508;2023-04-23T09:49:03;100136.38;;;14.32;100.00
13734;BME280;43298;52.560;13.508;2023-04-23T09:51:35;100138.22;;;14.30;100.00
13734;BME280;43298;52.560;13.508;2023-04-23T09:54:01;100144.81;;;14.23;100.00
13734;BME280;43298;52.560;13.508;2023-04-23T09:56:31;100142.72;;;14.01;100.00
13734;BME280;43298;52.560;13.508;2023-04-23T09:58:57;100144.06;;;13.94;100.00
13734;BME280;43298;52.560;13.508;2023-04-23T10:01:29;100149.78;;;13.73;100.00
13734;BME280;43298;52.560;13.508;2023-04-23T10:03:55;100153.13;;;13.75;100.00
13734;BME280;43298;52.560;13.508;2023-04-23T10:06:28;100161.91;;;13.60;100.00
13734;BME280;43298;52.560;13.508;2023-04-23T10:08:56;100152.00;;;13.52;100.00
13734;BME280;43298;52.560;13.508;2023-04-23T10:11:24;100155.19;;;13.43;100.00
13734;BME280;43298;52.560;13.508;2023-04-23T10:13:50;100159.63;;;13.41;100.00
13734;BME280;43298;52.560;13.508;2023-04-23T10:16:18;100164.63;;;13.44;100.00
13734;BME280;43298;52.560;13.508;2023-04-23T10:18:46;100164.63;;;13.44;100.00
13734;BME280;43298;52.560;13.508;2023-04-23T10:21:14;100169.59;;;13.61;100.00
13734;BME280;43298;52.560;13.508;2023-04-23T10:23:43;100171.84;;;13.80;100.00
13734;BME280;43298;52.560;13.508;2023-04-23T10:26:11;100172.69;;;13.80;100.00
13734;BME280;43298;52.560;13.508;2023-04-23T10:28:39;100175.69;;;13.74;100.00
13734;BME280;43298;52.560;13.508;2023-04-23T10:31:06;100179.13;;;13.75;100.00
13734;BME280;43298;52.560;13.508;2023-04-23T10:33:32;100181.44;;;13.79;100.00
13734;BME280;43298;52.560;13.508;2023-04-23T10:35:59;100184.91;;;13.92;100.00
13734;BME280;43298;52.560;13.508;2023-04-23T10:38:26;100182.16;;;13.81;100.00
13734;BME280;43298;52.560;13.508;2023-04-23T10:40:54;100176.38;;;13.90;100.00
13734;BME280;43298;52.560;13.508;2023-04-23T10:43:21;100177.19;;;14.17;100.00
13734;BME280;43298;52.560;13.508;2023-04-23T10:45:49;100173.78;;;14.56;100.00
13734;BME280;43298;52.560;13.508;2023-04-23T10:48:15;100163.13;;;15.22;100.00
13734;BME280;43298;52.560;13.508;2023-04-23T10:50:41;100152.94;;;15.19;100.00
13734;BME280;43298;52.560;13.508;2023-04-23T10:53:18;100145.88;;;15.57;100.00
13734;BME280;43298;52.560;13.508;2023-04-23T10:55:47;100151.28;;;15.90;100.00
13734;BME280;43298;52.560;13.508;2023-04-23T10:58:13;100148.44;;;15.93;100.00
13734;BME280;43298;52.560;13.508;2023-04-23T11:00:45;100158.00;;;16.16;100.00
13734;BME280;43298;52.560;13.508;2023-04-23T11:06:03;100153.50;;;16.07;100.00
13734;BME280;43298;52.560;13.508;2023-04-23T11:08:30;100162.09;;;16.31;100.00
13734;BME280;43298;52.560;13.508;2023-04-23T11:11:00;100169.69;;;16.34;100.00
13734;BME280;43298;52.560;13.508;2023-04-23T11:13:28;100168.31;;;16.41;100.00
13734;BME280;43298;52.560;13.508;2023-04-23T11:16:13;100166.16;;;16.35;100.00
13734;BME280;43298;52.560;13.508;2023-04-23T11:19:02;100167.94;;;16.34;100.00
13734;BME280;43298;52.560;13.508;2023-04-23T11:22:20;100170.69;;;15.86;100.00
13734;BME280;43298;52.560;13.508;2023-04-23T11:24:46;100174.22;;;15.85;100.00
13734;BME280;43298;52.560;13.508;2023-04-23T11:27:16;100175.47;;;15.56;100.00
13734;BME280;43298;52.560;13.508;2023-04-23T11:29:45;100163.56;;;15.88;100.00
13734;BME280;43298;52.560;13.508;2023-04-23T11:32:13;100165.38;;;16.11;100.00
13734;BME280;43298;52.560;13.508;2023-04-23T11:34:44;100171.84;;;16.29;100.00
13734;BME280;43298;52.560;13.508;2023-04-23T11:37:15;100172.28;;;15.99;100.00
13734;BME280;43298;52.560;13.508;2023-04-23T11:39:43;100176.41;;;15.91;100.00
13734;BME280;43298;52.560;13.508;2023-04-23T11:42:11;100183.56;;;16.00;100.00
13734;BME280;43298;52.560;13.508;2023-04-23T11:44:42;100184.38;;;16.00;100.00
13734;BME280;43298;52.560;13.508;2023-04-23T11:47:14;100182.53;;;16.37;100.00
13734;BME280;43298;52.560;13.508;2023-04-23T11:49:43;100193.66;;;16.04;100.00
13734;BME280;43298;52.560;13.508;2023-04-23T11:52:10;100184.88;;;16.29;100.00
13734;BME280;43298;52.560;13.508;2023-04-23T11:54:39;100189.59;;;17.15;100.00
13734;BME280;43298;52.560;13.508;2023-04-23T11:57:05;100198.38;;;16.92;100.00
13734;BME280;43298;52.560;13.508;2023-04-23T11:59:31;100194.09;;;17.02;100.00
13734;BME280;43298;52.560;13.508;2023-04-23T12:01:58;100191.34;;;17.14;100.00
13734;BME280;43298;52.560;13.508;2023-04-23T12:04:27;100181.69;;;17.92;100.00
13734;BME280;43298;52.560;13.508;2023-04-23T12:06:55;100197.84;;;18.40;100.00
13734;BME280;43298;52.560;13.508;2023-04-23T12:09:24;100206.06;;;18.97;100.00
13734;BME280;43298;52.560;13.508;2023-04-23T12:11:50;100203.59;;;18.95;100.00
13734;BME280;43298;52.560;13.508;2023-04-23T12:14:19;100209.44;;;18.47;100.00
13734;BME280;43298;52.560;13.508;2023-04-23T12:16:48;100218.59;;;18.52;100.00
13734;BME280;43298;52.560;13.508;2023-04-23T12:19:28;100216.31;;;18.27;100.00
13734;BME280;43298;52.560;13.508;2023-04-23T12:22:02;100213.69;;;18.16;100.00
13734;BME280;43298;52.560;13.508;2023-04-23T12:24:31;100227.84;;;17.71;100.00
13734;BME280;43298;52.560;13.508;2023-04-23T12:27:18;100220.09;;;17.14;100.00
13734;BME280;43298;52.560;13.508;2023-04-23T12:29:45;100223.56;;;17.15;100.00
13734;BME280;43298;52.560;13.508;2023-04-23T12:32:13;100236.06;;;17.44;100.00
13734;BME280;43298;52.560;13.508;2023-04-23T12:34:54;100233.34;;;17.46;100.00
13734;BME280;43298;52.560;13.508;2023-04-23T12:37:29;100230.00;;;17.55;100.00
13734;BME280;43298;52.560;13.508;2023-04-23T12:39:55;100230.00;;;17.44;100.00